sensor_id;sensor_type;location;lat;lon;timestamp;temperature;humidity
29341;DHT22;16337;59.536;13.468;2023-01-23T00:01:19;-4.40;99.90
29341;DHT22;16337;59.536;13.468;2023-01-23T00:03:46;-4.40;99.90
29341;DHT22;16337;59.536;13.468;2023-01-23T00:06:14;-4.40;99.90
29341;DHT22;16337;59.536;13.468;2023-01-23T00:08:41;-4.30;99.90
29341;DHT22;16337;59.536;13.468;2023-01-23T00:11:10;-4.30;99.90
29341;DHT22;16337;59.536;13.468;2023-01-23T00:13:36;-4.30;99.90
29341;DHT22;16337;59.536;13.468;2023-01-23T00:16:11;-4.20;99.90
29341;DHT22;16337;59.536;13.468;2023-01-23T00:18:37;-4.20;99.90
29341;DHT22;16337;59.536;13.468;2023-01-23T00:21:09;-4.10;99.90
29341;DHT22;16337;59.536;13.468;2023-01-23T00:23:35;-4.10;99.90
29341;DHT22;16337;59.536;13.468;2023-01-23T00:26:07;-4.20;99.90
29341;DHT22;16337;59.536;13.468;2023-01-23T00:28:33;-4.10;99.90
29341;DHT22;16337;59.536;13.468;2023-01-23T00:31:20;-4.10;99.90
29341;DHT22;16337;59.536;13.468;2023-01-23T00:33:46;-4.10;99.90
29341;DHT22;16337;59.536;13.468;2023-01-23T00:36:13;-4.20;99.90
29341;DHT22;16337;59.536;13.468;2023-01-23T00:38:40;-4.20;99.90
29341;DHT22;16337;59.536;13.468;2023-01-23T00:41:08;-4.20;99.90
29341;DHT22;16337;59.536;13.468;2023-01-23T00:43:34;-4.20;99.90
29341;DHT22;16337;59.536;13.468;2023-01-23T00:46:00;-4.30;99.90
29341;DHT22;16337;59.536;13.468;2023-01-23T00:48:26;-4.20;99.90
29341;DHT22;16337;59.536;13.468;2023-01-23T00:50:52;-4.20;99.90
29341;DHT22;16337;59.536;13.468;2023-01-23T00:53:18;-4.20;99.90
29341;DHT22;16337;59.536;13.468;2023-01-23T00:55:44;-4.10;99.90
29341;DHT22;16337;59.536;13.468;2023-01-23T00:58:09;-4.10;99.90
29341;DHT22;16337;59.536;13.468;2023-01-23T01:00:36;-4.10;99.90
29341;DHT22;16337;59.536;13.468;2023-01-23T01:03:03;-4.10;99.90
29341;DHT22;16337;59.536;13.468;2023-01-23T01:05:29;-4.10;99.90
29341;DHT22;16337;59.536;13.468;2023-01-23T01:07:55;-4.10;99.90
29341;DHT22;16337;59.536;13.468;2023-01-23T01:10:21;-4.10;99.90
29341;DHT22;16337;59.536;13.468;2023-01-23T01:12:48;-4.00;99.90
29341;DHT22;16337;59.536;13.468;2023-01-23T01:15:14;-4.00;99.90
29341;DHT22;16337;59.536;13.468;2023-01-23T01:17:40;-3.90;99.90
29341;DHT22;16337;59.536;13.468;2023-01-23T01:20:07;-4.00;99.90
29341;DHT22;16337;59.536;13.468;2023-01-23T01:22:33;-4.00;99.90
29341;DHT22;16337;59.536;13.468;2023-01-23T01:24:59;-3.90;99.90
29341;DHT22;16337;59.536;13.468;2023-01-23T01:27:24;-4.00;99.90
29341;DHT22;16337;59.536;13.468;2023-01-23T01:29:50;-4.00;99.90
29341;DHT22;16337;59.536;13.468;2023-01-23T01:32:16;-4.00;99.90
29341;DHT22;16337;59.536;13.468;2023-01-23T01:34:42;-4.00;99.90
29341;DHT22;16337;59.536;13.468;2023-01-23T01:37:07;-4.00;99.90
29341;DHT22;16337;59.536;13.468;2023-01-23T01:39:33;-3.90;99.90
29341;DHT22;16337;59.536;13.468;2023-01-23T01:41:59;-3.90;99.90
29341;DHT22;16337;59.536;13.468;2023-01-23T01:44:25;-3.90;99.90
29341;DHT22;16337;59.536;13.468;2023-01-23T01:46:50;-4.00;99.90
29341;DHT22;16337;59.536;13.468;2023-01-23T01:49:27;-4.00;99.90
29341;DHT22;16337;59.536;13.468;2023-01-23T01:51:59;-4.00;99.90
29341;DHT22;16337;59.536;13.468;2023-01-23T01:54:39;-4.00;99.90
29341;DHT22;16337;59.536;13.468;2023-01-23T01:57:13;-4.00;99.90
29341;DHT22;16337;59.536;13.468;2023-01-23T01:59:48;-4.10;99.90
29341;DHT22;16337;59.536;13.468;2023-01-23T02:02:32;-4.00;99.90
29341;DHT22;16337;59.536;13.468;2023-01-23T02:05:38;-4.00;99.90
29341;DHT22;16337;59.536;13.468;2023-01-23T02:08:08;-4.00;99.90
29341;DHT22;16337;59.536;13.468;2023-01-23T02:10:37;-4.00;99.90
29341;DHT22;16337;59.536;13.468;2023-01-23T02:17:02;-4.00;99.90
29341;DHT22;16337;59.536;13.468;2023-01-23T02:20:04;-4.00;99.90
29341;DHT22;16337;59.536;13.468;2023-01-23T02:28:11;-4.00;99.90
29341;DHT22;16337;59.536;13.468;2023-01-23T02:30:39;-3.90;99.90
29341;DHT22;16337;59.536;13.468;2023-01-23T02:35:46;-3.80;99.90
29341;DHT22;16337;59.536;13.468;2023-01-23T02:38:12;-3.80;99.90
29341;DHT22;16337;59.536;13.468;2023-01-23T02:46:56;-3.80;99.90
29341;DHT22;16337;59.536;13.468;2023-01-23T02:49:22;-3.90;99.90
29341;DHT22;16337;59.536;13.468;2023-01-23T02:51:49;-3.80;99.90
29341;DHT22;16337;59.536;13.468;2023-01-23T02:54:16;-3.80;99.90
29341;DHT22;16337;59.536;13.468;2023-01-23T02:56:43;-3.80;99.90
29341;DHT22;16337;59.536;13.468;2023-01-23T02:59:09;-3.80;99.90
29341;DHT22;16337;59.536;13.468;2023-01-23T03:01:54;-3.80;99.90
29341;DHT22;16337;59.536;13.468;2023-01-23T03:04:20;-3.80;99.90
29341;DHT22;16337;59.536;13.468;2023-01-23T03:06:46;-3.90;99.90
29341;DHT22;16337;59.536;13.468;2023-01-23T03:09:14;-4.00;99.90
29341;DHT22;16337;59.536;13.468;2023-01-23T03:11:44;-3.90;99.90
29341;DHT22;16337;59.536;13.468;2023-01-23T03:14:16;-4.00;99.90
29341;DHT22;16337;59.536;13.468;2023-01-23T03:16:43;-4.00;99.90
29341;DHT22;16337;59.536;13.468;2023-01-23T03:19:11;-4.00;99.90
29341;DHT22;16337;59.536;13.468;2023-01-23T03:21:39;-4.00;99.90
29341;DHT22;16337;59.536;13.468;2023-01-23T03:24:09;-4.00;99.90
29341;DHT22;16337;59.536;13.468;2023-01-23T03:26:43;-3.90;99.90
29341;DHT22;16337;59.536;13.468;2023-01-23T03:29:21;-4.00;99.90
29341;DHT22;16337;59.536;13.468;2023-01-23T03:32:07;-4.00;99.90
29341;DHT22;16337;59.536;13.468;2023-01-23T03:34:33;-4.10;99.90
29341;DHT22;16337;59.536;13.468;2023-01-23T03:36:59;-4.10;99.90
29341;DHT22;16337;59.536;13.468;2023-01-23T03:39:26;-4.10;99.90
29341;DHT22;16337;59.536;13.468;2023-01-23T03:42:16;-4.10;99.90
29341;DHT22;16337;59.536;13.468;2023-01-23T03:44:42;-4.10;99.90
29341;DHT22;16337;59.536;13.468;2023-01-23T03:47:08;-4.10;99.90
29341;DHT22;16337;59.536;13.468;2023-01-23T03:49:34;-4.00;99.90
29341;DHT22;16337;59.536;13.468;2023-01-23T03:52:00;-4.10;99.90
29341;DHT22;16337;59.536;13.468;2023-01-23T03:54:26;-4.20;99.90
29341;DHT22;16337;59.536;13.468;2023-01-23T03:56:52;-4.20;99.90
29341;DHT22;16337;59.536;13.468;2023-01-23T03:59:18;-4.20;99.90
29341;DHT22;16337;59.536;13.468;2023-01-23T04:01:44;-4.30;99.90
29341;DHT22;16337;59.536;13.468;2023-01-23T04:04:13;-4.20;99.90
29341;DHT22;16337;59.536;13.468;2023-01-23T04:06:39;-4.30;99.90
29341;DHT22;16337;59.536;13.468;2023-01-23T04:09:05;-4.30;99.90
29341;DHT22;16337;59.536;13.468;2023-01-23T04:11:30;-4.30;99.90
29341;DHT22;16337;59.536;13.468;2023-01-23T04:13:56;-4.30;99.90
29341;DHT22;16337;59.536;13.468;2023-01-23T04:16:22;-4.30;99.90
29341;DHT22;16337;59.536;13.468;2023-01-23T04:22:14;-4.30;99.90
29341;DHT22;16337;59.536;13.468;2023-01-23T04:24:58;-4.30;99.90
29341;DHT22;16337;59.536;13.468;2023-01-23T04:34:35;-4.30;99.90
29341;DHT22;16337;59.536;13.468;2023-01-23T04:37:01;-4.30;99.90
29341;DHT22;16337;59.536;13.468;2023-01-23T04:46:40;-4.40;99.90
29341;DHT22;16337;59.536;13.468;2023-01-23T04:52:12;-4.40;99.90
29341;DHT22;16337;59.536;13.468;2023-01-23T04:55:08;-4.30;99.90
29341;DHT22;16337;59.536;13.468;2023-01-23T05:11:33;-4.30;99.90
29341;DHT22;16337;59.536;13.468;2023-01-23T05:17:21;-4.20;99.90
29341;DHT22;16337;59.536;13.468;2023-01-23T05:23:44;-4.10;99.90
29341;DHT22;16337;59.536;13.468;2023-01-23T05:34:07;-4.10;99.90
29341;DHT22;16337;59.536;13.468;2023-01-23T05:46:51;-4.10;99.90
29341;DHT22;16337;59.536;13.468;2023-01-23T05:49:17;-4.10;99.90
29341;DHT22;16337;59.536;13.468;2023-01-23T05:51:42;-4.10;99.90
29341;DHT22;16337;59.536;13.468;2023-01-23T05:54:09;-4.10;99.90
29341;DHT22;16337;59.536;13.468;2023-01-23T05:56:35;-4.10;99.90
29341;DHT22;16337;59.536;13.468;2023-01-23T05:59:01;-4.10;99.90
29341;DHT22;16337;59.536;13.468;2023-01-23T06:01:28;-4.10;99.90
29341;DHT22;16337;59.536;13.468;2023-01-23T06:03:54;-4.10;99.90
29341;DHT22;16337;59.536;13.468;2023-01-23T06:06:19;-4.10;99.90
29341;DHT22;16337;59.536;13.468;2023-01-23T06:08:45;-4.10;99.90
29341;DHT22;16337;59.536;13.468;2023-01-23T06:11:11;-4.10;99.90
29341;DHT22;16337;59.536;13.468;2023-01-23T06:13:36;-4.10;99.90
29341;DHT22;16337;59.536;13.468;2023-01-23T06:16:05;-4.20;99.90
29341;DHT22;16337;59.536;13.468;2023-01-23T06:18:51;-4.20;99.90
29341;DHT22;16337;59.536;13.468;2023-01-23T06:21:17;-4.30;99.90
29341;DHT22;16337;59.536;13.468;2023-01-23T06:23:44;-4.30;99.90
29341;DHT22;16337;59.536;13.468;2023-01-23T06:26:13;-4.20;99.90
29341;DHT22;16337;59.536;13.468;2023-01-23T06:28:39;-4.20;99.90
29341;DHT22;16337;59.536;13.468;2023-01-23T06:31:05;-4.20;99.90
29341;DHT22;16337;59.536;13.468;2023-01-23T06:33:36;-4.10;99.90
29341;DHT22;16337;59.536;13.468;2023-01-23T06:36:04;-4.10;99.90
29341;DHT22;16337;59.536;13.468;2023-01-23T06:38:31;-4.10;99.90
29341;DHT22;16337;59.536;13.468;2023-01-23T06:40:56;-4.20;99.90
29341;DHT22;16337;59.536;13.468;2023-01-23T06:43:22;-4.20;99.90
29341;DHT22;16337;59.536;13.468;2023-01-23T06:45:49;-4.30;99.90
29341;DHT22;16337;59.536;13.468;2023-01-23T06:48:15;-4.20;99.90
29341;DHT22;16337;59.536;13.468;2023-01-23T06:50:42;-4.20;99.90
29341;DHT22;16337;59.536;13.468;2023-01-23T06:53:10;-4.20;99.90
29341;DHT22;16337;59.536;13.468;2023-01-23T06:55:38;-4.20;99.90
29341;DHT22;16337;59.536;13.468;2023-01-23T06:58:05;-4.10;99.90
29341;DHT22;16337;59.536;13.468;2023-01-23T07:00:31;-4.10;99.90
29341;DHT22;16337;59.536;13.468;2023-01-23T07:02:59;-4.10;99.90
29341;DHT22;16337;59.536;13.468;2023-01-23T07:05:31;-4.10;99.90
29341;DHT22;16337;59.536;13.468;2023-01-23T07:08:00;-4.10;99.90
29341;DHT22;16337;59.536;13.468;2023-01-23T07:10:26;-4.00;99.90
29341;DHT22;16337;59.536;13.468;2023-01-23T07:12:52;-4.00;99.90
29341;DHT22;16337;59.536;13.468;2023-01-23T07:15:21;-4.00;99.90
29341;DHT22;16337;59.536;13.468;2023-01-23T07:24:47;-4.00;99.90
29341;DHT22;16337;59.536;13.468;2023-01-23T07:27:34;-4.00;99.90
29341;DHT22;16337;59.536;13.468;2023-01-23T07:38:15;-4.00;99.90
29341;DHT22;16337;59.536;13.468;2023-01-23T07:40:41;-3.90;99.90
29341;DHT22;16337;59.536;13.468;2023-01-23T07:56:54;-3.80;99.90
29341;DHT22;16337;59.536;13.468;2023-01-23T08:02:59;-3.60;99.90
29341;DHT22;16337;59.536;13.468;2023-01-23T08:16:21;-3.50;99.90
29341;DHT22;16337;59.536;13.468;2023-01-23T08:45:20;-2.90;99.90
29341;DHT22;16337;59.536;13.468;2023-01-23T08:47:47;-2.80;99.90
29341;DHT22;16337;59.536;13.468;2023-01-23T08:50:13;-2.80;99.90
29341;DHT22;16337;59.536;13.468;2023-01-23T08:52:39;-2.80;99.90
29341;DHT22;16337;59.536;13.468;2023-01-23T08:55:05;-2.70;99.90
29341;DHT22;16337;59.536;13.468;2023-01-23T08:57:31;-2.70;99.90
29341;DHT22;16337;59.536;13.468;2023-01-23T08:59:56;-2.70;99.90
29341;DHT22;16337;59.536;13.468;2023-01-23T09:02:22;-2.60;99.90
29341;DHT22;16337;59.536;13.468;2023-01-23T09:04:49;-2.50;99.90
29341;DHT22;16337;59.536;13.468;2023-01-23T09:11:28;-2.50;99.90
29341;DHT22;16337;59.536;13.468;2023-01-23T09:14:19;-2.40;99.90
29341;DHT22;16337;59.536;13.468;2023-01-23T09:20:39;-2.30;99.90
29341;DHT22;16337;59.536;13.468;2023-01-23T09:33:17;-2.10;99.90
29341;DHT22;16337;59.536;13.468;2023-01-23T09:35:51;-2.10;99.90
29341;DHT22;16337;59.536;13.468;2023-01-23T09:38:18;-2.00;99.90
29341;DHT22;16337;59.536;13.468;2023-01-23T09:47:50;-2.00;99.90
29341;DHT22;16337;59.536;13.468;2023-01-23T09:57:18;-1.80;99.90
29341;DHT22;16337;59.536;13.468;2023-01-23T10:00:06;-1.80;99.90
29341;DHT22;16337;59.536;13.468;2023-01-23T10:02:35;-1.80;99.90
29341;DHT22;16337;59.536;13.468;2023-01-23T10:29:37;-1.80;99.90
29341;DHT22;16337;59.536;13.468;2023-01-23T10:42:26;-1.70;99.90
29341;DHT22;16337;59.536;13.468;2023-01-23T11:38:05;-1.30;99.90
29341;DHT22;16337;59.536;13.468;2023-01-23T11:40:38;-1.40;99.90
29341;DHT22;16337;59.536;13.468;2023-01-23T12:17:38;-1.20;99.90
29341;DHT22;16337;59.536;13.468;2023-01-23T12:26:14;-1.20;99.90
29341;DHT22;16337;59.536;13.468;2023-01-23T12:49:10;-1.00;99.90
29341;DHT22;16337;59.536;13.468;2023-01-23T13:09:27;-1.10;99.90
29341;DHT22;16337;59.536;13.468;2023-01-23T13:26:39;-1.00;99.90
29341;DHT22;16337;59.536;13.468;2023-01-23T13:39:37;-1.00;99.90
29341;DHT22;16337;59.536;13.468;2023-01-23T13:42:46;-1.00;99.90
29341;DHT22;16337;59.536;13.468;2023-01-23T13:45:35;-1.00;99.90
29341;DHT22;16337;59.536;13.468;2023-01-23T13:51:29;-1.00;99.90
29341;DHT22;16337;59.536;13.468;2023-01-23T13:57:20;-1.00;99.90
29341;DHT22;16337;59.536;13.468;2023-01-23T13:59:50;-1.00;99.90
29341;DHT22;16337;59.536;13.468;2023-01-23T14:02:34;-1.00;99.90
29341;DHT22;16337;59.536;13.468;2023-01-23T14:45:05;-0.90;99.90
29341;DHT22;16337;59.536;13.468;2023-01-23T14:58:20;-1.00;99.90
29341;DHT22;16337;59.536;13.468;2023-01-23T15:11:06;-0.90;99.90
29341;DHT22;16337;59.536;13.468;2023-01-23T15:13:47;-0.90;99.90
29341;DHT22;16337;59.536;13.468;2023-01-23T15:40:17;-0.80;99.90
29341;DHT22;16337;59.536;13.468;2023-01-23T15:49:27;-0.70;99.90
29341;DHT22;16337;59.536;13.468;2023-01-23T15:51:55;-0.70;99.90
29341;DHT22;16337;59.536;13.468;2023-01-23T15:54:25;-0.70;99.90
29341;DHT22;16337;59.536;13.468;2023-01-23T15:56:52;-0.70;99.90
29341;DHT22;16337;59.536;13.468;2023-01-23T15:59:19;-0.60;99.90
29341;DHT22;16337;59.536;13.468;2023-01-23T16:01:45;-0.60;99.90
29341;DHT22;16337;59.536;13.468;2023-01-23T16:04:11;-0.60;99.90
29341;DHT22;16337;59.536;13.468;2023-01-23T16:06:37;-0.60;99.90
29341;DHT22;16337;59.536;13.468;2023-01-23T16:09:03;-0.60;99.90
29341;DHT22;16337;59.536;13.468;2023-01-23T16:11:33;-0.60;99.90
29341;DHT22;16337;59.536;13.468;2023-01-23T16:14:02;-0.70;99.90
29341;DHT22;16337;59.536;13.468;2023-01-23T16:16:28;-0.60;99.90
29341;DHT22;16337;59.536;13.468;2023-01-23T16:18:54;-0.60;99.90
29341;DHT22;16337;59.536;13.468;2023-01-23T16:21:24;-0.60;99.90
29341;DHT22;16337;59.536;13.468;2023-01-23T16:23:51;-0.60;99.90
29341;DHT22;16337;59.536;13.468;2023-01-23T16:26:20;-0.60;99.90
29341;DHT22;16337;59.536;13.468;2023-01-23T16:32:01;-0.50;99.90
29341;DHT22;16337;59.536;13.468;2023-01-23T16:34:27;-0.60;99.90
29341;DHT22;16337;59.536;13.468;2023-01-23T16:36:56;-0.50;99.90
29341;DHT22;16337;59.536;13.468;2023-01-23T16:39:25;-0.50;99.90
29341;DHT22;16337;59.536;13.468;2023-01-23T16:41:51;-0.50;99.90
29341;DHT22;16337;59.536;13.468;2023-01-23T16:44:21;-0.50;99.90
29341;DHT22;16337;59.536;13.468;2023-01-23T16:47:29;-0.50;99.90
29341;DHT22;16337;59.536;13.468;2023-01-23T16:49:55;-0.50;99.90
29341;DHT22;16337;59.536;13.468;2023-01-23T16:52:23;-0.50;99.90
29341;DHT22;16337;59.536;13.468;2023-01-23T16:54:51;-0.50;99.90
29341;DHT22;16337;59.536;13.468;2023-01-23T16:57:19;-0.40;99.90
29341;DHT22;16337;59.536;13.468;2023-01-23T16:59:45;-0.50;99.90
29341;DHT22;16337;59.536;13.468;2023-01-23T17:02:25;-0.50;99.90
29341;DHT22;16337;59.536;13.468;2023-01-23T17:04:52;-0.50;99.90
29341;DHT22;16337;59.536;13.468;2023-01-23T17:07:18;-0.50;99.90
29341;DHT22;16337;59.536;13.468;2023-01-23T17:09:44;-0.50;99.90
29341;DHT22;16337;59.536;13.468;2023-01-23T17:12:45;-0.50;99.90
29341;DHT22;16337;59.536;13.468;2023-01-23T17:15:23;-0.50;99.90
29341;DHT22;16337;59.536;13.468;2023-01-23T17:17:53;-0.50;99.90
29341;DHT22;16337;59.536;13.468;2023-01-23T17:20:20;-0.50;99.90
29341;DHT22;16337;59.536;13.468;2023-01-23T17:22:47;-0.50;99.90
29341;DHT22;16337;59.536;13.468;2023-01-23T17:25:31;-0.50;99.90
29341;DHT22;16337;59.536;13.468;2023-01-23T17:28:00;-0.50;99.90
29341;DHT22;16337;59.536;13.468;2023-01-23T17:30:35;-0.50;99.90
29341;DHT22;16337;59.536;13.468;2023-01-23T17:33:01;-0.50;99.90
29341;DHT22;16337;59.536;13.468;2023-01-23T17:35:34;-0.50;99.90
29341;DHT22;16337;59.536;13.468;2023-01-23T17:38:02;-0.50;99.90
29341;DHT22;16337;59.536;13.468;2023-01-23T17:40:59;-0.30;99.90
29341;DHT22;16337;59.536;13.468;2023-01-23T17:46:47;-0.30;99.90
29341;DHT22;16337;59.536;13.468;2023-01-23T17:52:30;-0.40;99.90
29341;DHT22;16337;59.536;13.468;2023-01-23T17:54:58;-0.40;99.90
29341;DHT22;16337;59.536;13.468;2023-01-23T17:57:24;-0.40;99.90
29341;DHT22;16337;59.536;13.468;2023-01-23T17:59:50;-0.40;99.90
29341;DHT22;16337;59.536;13.468;2023-01-23T18:02:24;-0.40;99.90
29341;DHT22;16337;59.536;13.468;2023-01-23T18:04:50;-0.40;99.90
29341;DHT22;16337;59.536;13.468;2023-01-23T18:07:19;-0.40;99.90
29341;DHT22;16337;59.536;13.468;2023-01-23T18:09:46;-0.40;99.90
29341;DHT22;16337;59.536;13.468;2023-01-23T18:15:10;-0.40;99.90
29341;DHT22;16337;59.536;13.468;2023-01-23T18:17:44;-0.40;99.90
29341;DHT22;16337;59.536;13.468;2023-01-23T18:20:17;-0.40;99.90
29341;DHT22;16337;59.536;13.468;2023-01-23T18:22:43;-0.40;99.90
29341;DHT22;16337;59.536;13.468;2023-01-23T18:25:14;-0.40;99.90
29341;DHT22;16337;59.536;13.468;2023-01-23T18:28:07;-0.40;99.90
29341;DHT22;16337;59.536;13.468;2023-01-23T18:31:12;-0.40;99.90
29341;DHT22;16337;59.536;13.468;2023-01-23T18:33:58;-0.50;99.90
29341;DHT22;16337;59.536;13.468;2023-01-23T18:42:16;-0.40;99.90
29341;DHT22;16337;59.536;13.468;2023-01-23T18:45:23;-0.50;99.90
29341;DHT22;16337;59.536;13.468;2023-01-23T18:47:49;-0.50;99.90
29341;DHT22;16337;59.536;13.468;2023-01-23T18:50:17;-0.50;99.90
29341;DHT22;16337;59.536;13.468;2023-01-23T18:56:09;-0.50;99.90
29341;DHT22;16337;59.536;13.468;2023-01-23T19:01:40;-0.50;99.90
29341;DHT22;16337;59.536;13.468;2023-01-23T19:04:16;-0.50;99.90
29341;DHT22;16337;59.536;13.468;2023-01-23T19:06:46;-0.50;99.90
29341;DHT22;16337;59.536;13.468;2023-01-23T19:09:19;-0.50;99.90
29341;DHT22;16337;59.536;13.468;2023-01-23T19:11:51;-0.50;99.90
29341;DHT22;16337;59.536;13.468;2023-01-23T19:16:54;-0.60;99.90
29341;DHT22;16337;59.536;13.468;2023-01-23T19:19:48;-0.50;99.90
29341;DHT22;16337;59.536;13.468;2023-01-23T19:22:57;-0.50;99.90
29341;DHT22;16337;59.536;13.468;2023-01-23T19:25:26;-0.50;99.90
29341;DHT22;16337;59.536;13.468;2023-01-23T19:27:56;-0.50;99.90
29341;DHT22;16337;59.536;13.468;2023-01-23T19:30:23;-0.50;99.90
29341;DHT22;16337;59.536;13.468;2023-01-23T19:32:51;-0.40;99.90
29341;DHT22;16337;59.536;13.468;2023-01-23T19:35:17;-0.50;99.90
29341;DHT22;16337;59.536;13.468;2023-01-23T19:37:43;-0.50;99.90
29341;DHT22;16337;59.536;13.468;2023-01-23T19:40:14;-0.50;99.90
29341;DHT22;16337;59.536;13.468;2023-01-23T19:42:41;-0.50;99.90
29341;DHT22;16337;59.536;13.468;2023-01-23T19:45:16;-0.50;99.90
29341;DHT22;16337;59.536;13.468;2023-01-23T19:47:42;-0.50;99.90
29341;DHT22;16337;59.536;13.468;2023-01-23T19:50:12;-0.60;99.90
29341;DHT22;16337;59.536;13.468;2023-01-23T19:52:43;-0.50;99.90
29341;DHT22;16337;59.536;13.468;2023-01-23T19:55:30;-0.60;99.90
29341;DHT22;16337;59.536;13.468;2023-01-23T19:57:57;-0.50;99.90
29341;DHT22;16337;59.536;13.468;2023-01-23T20:00:24;-0.50;99.90
29341;DHT22;16337;59.536;13.468;2023-01-23T20:02:51;-0.50;99.90
29341;DHT22;16337;59.536;13.468;2023-01-23T20:05:17;-0.50;99.90
29341;DHT22;16337;59.536;13.468;2023-01-23T20:07:43;-0.60;99.90
29341;DHT22;16337;59.536;13.468;2023-01-23T20:10:13;-0.60;99.90
29341;DHT22;16337;59.536;13.468;2023-01-23T20:12:49;-0.60;99.90
29341;DHT22;16337;59.536;13.468;2023-01-23T20:15:18;-0.60;99.90
29341;DHT22;16337;59.536;13.468;2023-01-23T20:17:44;-0.60;99.90
29341;DHT22;16337;59.536;13.468;2023-01-23T20:20:10;-0.60;99.90
29341;DHT22;16337;59.536;13.468;2023-01-23T20:22:43;-0.60;99.90
29341;DHT22;16337;59.536;13.468;2023-01-23T20:25:11;-0.60;99.90
29341;DHT22;16337;59.536;13.468;2023-01-23T20:27:38;-0.60;99.90
29341;DHT22;16337;59.536;13.468;2023-01-23T20:30:06;-0.50;99.90
29341;DHT22;16337;59.536;13.468;2023-01-23T20:32:32;-0.50;99.90
29341;DHT22;16337;59.536;13.468;2023-01-23T20:34:59;-0.50;99.90
29341;DHT22;16337;59.536;13.468;2023-01-23T20:37:26;-0.50;99.90
29341;DHT22;16337;59.536;13.468;2023-01-23T20:39:52;-0.50;99.90
29341;DHT22;16337;59.536;13.468;2023-01-23T20:42:18;-0.60;99.90
29341;DHT22;16337;59.536;13.468;2023-01-23T20:44:44;-0.60;99.90
29341;DHT22;16337;59.536;13.468;2023-01-23T20:47:09;-0.60;99.90
29341;DHT22;16337;59.536;13.468;2023-01-23T20:49:35;-0.60;99.90
29341;DHT22;16337;59.536;13.468;2023-01-23T20:52:01;-0.60;99.90
29341;DHT22;16337;59.536;13.468;2023-01-23T20:54:45;-0.60;99.90
29341;DHT22;16337;59.536;13.468;2023-01-23T21:00:33;-0.50;99.90
29341;DHT22;16337;59.536;13.468;2023-01-23T21:09:37;-0.60;99.90
29341;DHT22;16337;59.536;13.468;2023-01-23T21:12:16;-0.60;99.90
29341;DHT22;16337;59.536;13.468;2023-01-23T21:14:42;-0.60;99.90
29341;DHT22;16337;59.536;13.468;2023-01-23T21:17:08;-0.60;99.90
29341;DHT22;16337;59.536;13.468;2023-01-23T21:19:36;-0.60;99.90
29341;DHT22;16337;59.536;13.468;2023-01-23T21:22:03;-0.60;99.90
29341;DHT22;16337;59.536;13.468;2023-01-23T21:24:33;-0.60;99.90
29341;DHT22;16337;59.536;13.468;2023-01-23T21:27:04;-0.50;99.90
29341;DHT22;16337;59.536;13.468;2023-01-23T21:29:31;-0.50;99.90
29341;DHT22;16337;59.536;13.468;2023-01-23T21:32:00;-0.50;99.90
29341;DHT22;16337;59.536;13.468;2023-01-23T21:34:26;-0.50;99.90
29341;DHT22;16337;59.536;13.468;2023-01-23T21:36:51;-0.50;99.90
29341;DHT22;16337;59.536;13.468;2023-01-23T21:39:18;-0.50;99.90
29341;DHT22;16337;59.536;13.468;2023-01-23T21:41:44;-0.50;99.90
29341;DHT22;16337;59.536;13.468;2023-01-23T21:44:13;-0.50;99.90
29341;DHT22;16337;59.536;13.468;2023-01-23T21:46:39;-0.50;99.90
29341;DHT22;16337;59.536;13.468;2023-01-23T21:49:05;-0.50;99.90
29341;DHT22;16337;59.536;13.468;2023-01-23T21:51:31;-0.50;99.90
29341;DHT22;16337;59.536;13.468;2023-01-23T21:53:57;-0.50;99.90
29341;DHT22;16337;59.536;13.468;2023-01-23T21:56:24;-0.60;99.90
29341;DHT22;16337;59.536;13.468;2023-01-23T21:58:50;-0.50;99.90
29341;DHT22;16337;59.536;13.468;2023-01-23T22:01:18;-0.50;99.90
29341;DHT22;16337;59.536;13.468;2023-01-23T22:04:19;-0.50;99.90
29341;DHT22;16337;59.536;13.468;2023-01-23T22:06:58;-0.50;99.90
29341;DHT22;16337;59.536;13.468;2023-01-23T22:09:27;-0.50;99.90
29341;DHT22;16337;59.536;13.468;2023-01-23T22:11:53;-0.50;99.90
29341;DHT22;16337;59.536;13.468;2023-01-23T22:14:20;-0.50;99.90
29341;DHT22;16337;59.536;13.468;2023-01-23T22:16:48;-0.50;99.90
29341;DHT22;16337;59.536;13.468;2023-01-23T22:19:15;-0.50;99.90
29341;DHT22;16337;59.536;13.468;2023-01-23T22:21:44;-0.40;99.90
29341;DHT22;16337;59.536;13.468;2023-01-23T22:24:19;-0.40;99.90
29341;DHT22;16337;59.536;13.468;2023-01-23T22:26:45;-0.50;99.90
29341;DHT22;16337;59.536;13.468;2023-01-23T22:29:41;-0.50;99.90
29341;DHT22;16337;59.536;13.468;2023-01-23T22:32:08;-0.50;99.90
29341;DHT22;16337;59.536;13.468;2023-01-23T22:34:34;-0.50;99.90
29341;DHT22;16337;59.536;13.468;2023-01-23T22:36:59;-0.50;99.90
29341;DHT22;16337;59.536;13.468;2023-01-23T22:39:25;-0.50;99.90
29341;DHT22;16337;59.536;13.468;2023-01-23T22:41:53;-0.50;99.90
29341;DHT22;16337;59.536;13.468;2023-01-23T22:44:31;-0.50;99.90
29341;DHT22;16337;59.536;13.468;2023-01-23T22:46:57;-0.40;99.90
29341;DHT22;16337;59.536;13.468;2023-01-23T22:49:23;-0.40;99.90
29341;DHT22;16337;59.536;13.468;2023-01-23T22:51:49;-0.40;99.90
29341;DHT22;16337;59.536;13.468;2023-01-23T22:54:18;-0.40;99.90
29341;DHT22;16337;59.536;13.468;2023-01-23T22:59:53;-0.40;99.90
29341;DHT22;16337;59.536;13.468;2023-01-23T23:02:38;-0.40;99.90
29341;DHT22;16337;59.536;13.468;2023-01-23T23:05:04;-0.40;99.90
29341;DHT22;16337;59.536;13.468;2023-01-23T23:07:32;-0.40;99.90
29341;DHT22;16337;59.536;13.468;2023-01-23T23:10:07;-0.30;99.90
29341;DHT22;16337;59.536;13.468;2023-01-23T23:12:36;-0.30;99.90
29341;DHT22;16337;59.536;13.468;2023-01-23T23:15:09;-0.30;99.90
29341;DHT22;16337;59.536;13.468;2023-01-23T23:17:37;-0.20;99.90
29341;DHT22;16337;59.536;13.468;2023-01-23T23:20:03;-0.20;99.90
29341;DHT22;16337;59.536;13.468;2023-01-23T23:22:29;-0.20;99.90
29341;DHT22;16337;59.536;13.468;2023-01-23T23:24:57;-0.20;99.90
29341;DHT22;16337;59.536;13.468;2023-01-23T23:27:23;-0.20;99.90
29341;DHT22;16337;59.536;13.468;2023-01-23T23:29:49;-0.20;99.90
29341;DHT22;16337;59.536;13.468;2023-01-23T23:32:15;-0.20;99.90
29341;DHT22;16337;59.536;13.468;2023-01-23T23:34:43;-0.20;99.90
29341;DHT22;16337;59.536;13.468;2023-01-23T23:46:36;-0.10;99.90
29341;DHT22;16337;59.536;13.468;2023-01-23T23:49:01;0.00;99.90
29341;DHT22;16337;59.536;13.468;2023-01-23T23:51:28;0.00;99.90
29341;DHT22;16337;59.536;13.468;2023-01-23T23:53:53;0.00;99.90
29341;DHT22;16337;59.536;13.468;2023-01-23T23:56:27;0.00;99.90
29341;DHT22;16337;59.536;13.468;2023-01-23T23:58:54;0.10;99.90
